Time;durP1;ratioP1;P1;durP2;ratioP2;P2;SDS_P1;SDS_P2;PMS_P1;PMS_P2;Temp;Humidity;BMP_temperature;BMP_pressure;BME280_temperature;BME280_humidity;BME280_pressure;Samples;Min_cycle;Max_cycle;Signal;HPM_P1;HPM_P2
2022/06/23 00:02:06;;;;;;;1999.90;999.90;;;;;;;;;;5141128;27;21912;-72
2022/06/23 00:04:37;;;;;;;1999.90;999.90;;;;;;;;;;5127658;27;20486;-72
2022/06/23 00:07:06;;;;;;;1999.90;999.90;;;;;;;;;;5137173;27;20394;-71
2022/06/23 00:09:37;;;;;;;1999.90;999.90;;;;;;;;;;5136361;27;20462;-72
2022/06/23 00:12:14;;;;;;;1999.90;999.90;;;;;;;;;;5123468;27;20417;-72
2022/06/23 00:14:43;;;;;;;1999.90;999.90;;;;;;;;;;5128755;27;20392;-71
2022/06/23 00:17:18;;;;;;;1999.90;999.90;;;;;;;;;;5130337;27;20414;-71
2022/06/23 00:19:46;;;;;;;1999.90;999.90;;;;;;;;;;5122537;27;20390;-72
2022/06/23 00:22:15;;;;;;;1999.90;999.90;;;;;;;;;;5125542;27;20445;-72
2022/06/23 00:24:43;;;;;;;1999.90;999.90;;;;;;;;;;5131773;27;20378;-74
2022/06/23 00:27:14;;;;;;;1999.90;999.90;;;;;;;;;;5126827;27;20462;-73
2022/06/23 00:29:44;;;;;;;1999.90;999.90;;;;;;;;;;5122470;27;20463;-74
2022/06/23 00:32:13;;;;;;;1999.90;999.90;;;;;;;;;;5105093;27;20396;-74
2022/06/23 00:34:41;;;;;;;1999.90;999.90;;;;;;;;;;5130670;27;20423;-73
2022/06/23 00:37:14;;;;;;;1999.90;999.90;;;;;;;;;;5128004;27;20404;-73
2022/06/23 00:39:42;;;;;;;1999.90;999.90;;;;;;;;;;5126116;27;20397;-73
2022/06/23 00:42:18;;;;;;;1999.90;999.90;;;;;;;;;;5105294;27;20410;-72
2022/06/23 00:44:50;;;;;;;1999.90;999.90;;;;;;;;;;5124665;27;20815;-72
2022/06/23 00:47:20;;;;;;;1999.90;999.90;;;;;;;;;;5129712;27;20412;-73
2022/06/23 00:49:50;;;;;;;1999.90;999.90;;;;;;;;;;5123113;27;20501;-71
2022/06/23 00:52:21;;;;;;;1999.90;999.90;;;;;;;;;;5124723;27;20409;-72
2022/06/23 00:54:52;;;;;;;1999.90;999.90;;;;;;;;;;5127152;27;20393;-74
2022/06/23 00:57:23;;;;;;;1999.90;999.90;;;;;;;;;;5105119;27;20787;-74
2022/06/23 00:59:55;;;;;;;1999.90;999.90;;;;;;;;;;5124217;27;20848;-73
2022/06/23 01:02:25;;;;;;;1999.90;999.90;;;;;;;;;;5121779;27;20493;-73
2022/06/23 01:04:59;;;;;;;1999.90;999.90;;;;;;;;;;5125211;27;20389;-72
2022/06/23 01:07:31;;;;;;;1999.90;999.90;;;;;;;;;;5123985;27;20401;-73
2022/06/23 01:10:01;;;;;;;1999.90;999.90;;;;;;;;;;5121518;27;20386;-73
2022/06/23 01:12:31;;;;;;;1999.90;999.90;;;;;;;;;;5121415;27;21406;-72
2022/06/23 01:15:02;;;;;;;1999.90;999.90;;;;;;;;;;5128543;27;20429;-72
2022/06/23 01:17:35;;;;;;;1999.90;999.90;;;;;;;;;;5121925;27;20417;-73
2022/06/23 01:20:11;;;;;;;1999.90;999.90;;;;;;;;;;5120744;27;20408;-73
2022/06/23 01:23:01;;;;;;;1999.90;999.90;;;;;;;;;;5130906;27;20411;-73
2022/06/23 01:25:35;;;;;;;1999.90;999.90;;;;;;;;;;5126520;27;20480;-73
2022/06/23 01:28:07;;;;;;;1999.90;999.90;;;;;;;;;;5130451;27;20413;-73
2022/06/23 01:30:38;;;;;;;1999.90;999.90;;;;;;;;;;5127672;27;20405;-74
2022/06/23 01:33:13;;;;;;;1999.90;999.90;;;;;;;;;;5114576;27;20909;-72
2022/06/23 01:35:43;;;;;;;1999.90;999.90;;;;;;;;;;5126273;27;20401;-72
2022/06/23 01:38:12;;;;;;;1999.90;999.90;;;;;;;;;;5127209;27;21671;-73
2022/06/23 01:40:42;;;;;;;1999.90;999.90;;;;;;;;;;5124001;27;20834;-73
2022/06/23 01:43:16;;;;;;;1999.90;999.90;;;;;;;;;;5124373;27;32071;-72
2022/06/23 01:45:54;;;;;;;1999.90;999.90;;;;;;;;;;5123761;27;20485;-73
2022/06/23 01:51:06;;;;;;;1999.90;999.90;;;;;;;;;;5132483;27;20929;-72
2022/06/23 01:53:34;;;;;;;1999.90;999.90;;;;;;;;;;5123926;27;20416;-73
2022/06/23 01:56:10;;;;;;;1999.90;999.90;;;;;;;;;;5129476;27;20402;-71
2022/06/23 01:58:47;;;;;;;1999.90;999.90;;;;;;;;;;5123166;27;20481;-72
2022/06/23 02:01:16;;;;;;;1999.90;999.90;;;;;;;;;;5124040;27;20397;-72
2022/06/23 02:03:44;;;;;;;1999.90;999.90;;;;;;;;;;5118627;27;20933;-72
2022/06/23 02:06:16;;;;;;;1999.90;999.90;;;;;;;;;;5135707;27;20385;-73
2022/06/23 02:08:47;;;;;;;1999.90;999.90;;;;;;;;;;5128557;27;20840;-74
2022/06/23 02:11:22;;;;;;;1999.90;999.90;;;;;;;;;;5129279;27;20392;-73
2022/06/23 02:13:53;;;;;;;1999.90;999.90;;;;;;;;;;5122229;27;21614;-72
2022/06/23 02:16:26;;;;;;;1999.90;999.90;;;;;;;;;;5124421;27;20380;-73
2022/06/23 02:18:59;;;;;;;1999.90;999.90;;;;;;;;;;5112620;27;20385;-72
2022/06/23 02:21:31;;;;;;;1999.90;999.90;;;;;;;;;;5123734;27;20397;-71
2022/06/23 02:24:02;;;;;;;1999.90;999.90;;;;;;;;;;5119477;27;20876;-71
2022/06/23 02:26:33;;;;;;;1999.90;999.90;;;;;;;;;;5124256;27;20386;-71
2022/06/23 02:29:06;;;;;;;1999.90;999.90;;;;;;;;;;5124627;27;20520;-72
2022/06/23 02:31:37;;;;;;;1999.90;999.90;;;;;;;;;;5127829;27;20405;-72
2022/06/23 02:34:08;;;;;;;1999.90;999.90;;;;;;;;;;5131269;27;20414;-72
2022/06/23 02:36:39;;;;;;;1999.90;999.90;;;;;;;;;;5129903;27;20398;-73
2022/06/23 02:39:08;;;;;;;1999.90;999.90;;;;;;;;;;5124508;27;20400;-72
2022/06/23 02:41:39;;;;;;;1999.90;999.90;;;;;;;;;;5124299;27;20388;-72
2022/06/23 02:44:26;;;;;;;1999.90;999.90;;;;;;;;;;5124359;27;20396;-73
2022/06/23 02:47:01;;;;;;;1999.90;999.90;;;;;;;;;;5121847;27;20419;-73
2022/06/23 02:49:44;;;;;;;1999.90;999.90;;;;;;;;;;5126606;27;20841;-73
2022/06/23 02:52:30;;;;;;;1999.90;999.90;;;;;;;;;;5123928;27;20392;-73
2022/06/23 02:55:17;;;;;;;1999.90;999.90;;;;;;;;;;5123614;27;20401;-74
2022/06/23 02:57:49;;;;;;;1999.90;999.90;;;;;;;;;;5125448;27;20460;-73
2022/06/23 03:00:22;;;;;;;1999.90;999.90;;;;;;;;;;5120914;27;20465;-72
2022/06/23 03:02:55;;;;;;;1999.90;999.90;;;;;;;;;;5124318;27;20380;-73
2022/06/23 03:05:27;;;;;;;1999.90;999.90;;;;;;;;;;5124977;27;20403;-73
2022/06/23 03:07:58;;;;;;;1999.90;999.90;;;;;;;;;;5125931;27;20892;-73
2022/06/23 03:10:28;;;;;;;1999.90;999.90;;;;;;;;;;5126725;27;20378;-72
2022/06/23 03:12:58;;;;;;;1999.90;999.90;;;;;;;;;;5126419;27;20517;-72
2022/06/23 03:15:29;;;;;;;1999.90;999.90;;;;;;;;;;5126465;27;20529;-73
2022/06/23 03:17:59;;;;;;;1999.90;999.90;;;;;;;;;;5122246;27;20389;-74
2022/06/23 03:20:32;;;;;;;1999.90;999.90;;;;;;;;;;5122183;27;20403;-71
2022/06/23 03:23:04;;;;;;;1999.90;999.90;;;;;;;;;;5131024;27;20384;-72
2022/06/23 03:25:36;;;;;;;1999.90;999.90;;;;;;;;;;5125861;27;20401;-73
2022/06/23 03:28:06;;;;;;;1999.90;999.90;;;;;;;;;;5130113;27;20396;-72
2022/06/23 03:30:39;;;;;;;1999.90;999.90;;;;;;;;;;5126895;27;20896;-72
2022/06/23 03:33:09;;;;;;;1999.90;999.90;;;;;;;;;;5124093;27;20389;-74
2022/06/23 03:35:41;;;;;;;1999.90;999.90;;;;;;;;;;5121525;27;20405;-73
2022/06/23 03:38:13;;;;;;;1999.90;999.90;;;;;;;;;;5125601;27;20890;-72
2022/06/23 03:43:38;;;;;;;1999.90;999.90;;;;;;;;;;5123922;27;20382;-71
2022/06/23 03:46:12;;;;;;;1999.90;999.90;;;;;;;;;;5112137;27;20413;-73
2022/06/23 03:48:42;;;;;;;1999.90;999.90;;;;;;;;;;5123977;27;20436;-72
2022/06/23 03:51:13;;;;;;;1999.90;999.90;;;;;;;;;;5132573;27;20387;-73
2022/06/23 03:53:48;;;;;;;1999.90;999.90;;;;;;;;;;5120960;27;20413;-72
2022/06/23 03:56:18;;;;;;;1999.90;999.90;;;;;;;;;;5129024;27;20406;-70
2022/06/23 03:58:49;;;;;;;1999.90;999.90;;;;;;;;;;5127428;27;20407;-70
2022/06/23 04:01:21;;;;;;;1999.90;999.90;;;;;;;;;;5125938;27;20393;-69
2022/06/23 04:03:51;;;;;;;1999.90;999.90;;;;;;;;;;5127279;27;20394;-69
2022/06/23 04:06:23;;;;;;;1999.90;999.90;;;;;;;;;;5129423;27;20402;-70
2022/06/23 04:08:58;;;;;;;1999.90;999.90;;;;;;;;;;5127231;27;20397;-69
2022/06/23 04:11:46;;;;;;;1999.90;999.90;;;;;;;;;;5136409;27;20400;-69
2022/06/23 04:14:17;;;;;;;1999.90;999.90;;;;;;;;;;5131547;27;20392;-70
2022/06/23 04:16:47;;;;;;;1999.90;999.90;;;;;;;;;;5125486;27;20458;-69
2022/06/23 04:19:18;;;;;;;1999.90;999.90;;;;;;;;;;5123706;27;20409;-68
2022/06/23 04:21:47;;;;;;;1999.90;999.90;;;;;;;;;;5128168;27;20415;-69
2022/06/23 04:24:17;;;;;;;1999.90;999.90;;;;;;;;;;5127340;27;20392;-69
2022/06/23 04:26:48;;;;;;;1999.90;999.90;;;;;;;;;;5129815;27;20405;-69
2022/06/23 04:29:19;;;;;;;1999.90;999.90;;;;;;;;;;5130228;27;20395;-69
2022/06/23 04:31:50;;;;;;;1999.90;999.90;;;;;;;;;;5123030;27;20397;-69
2022/06/23 04:34:20;;;;;;;1999.90;999.90;;;;;;;;;;5131412;27;20417;-69
2022/06/23 04:36:48;;;;;;;1999.90;999.90;;;;;;;;;;5127240;27;20409;-69
2022/06/23 04:39:20;;;;;;;1999.90;999.90;;;;;;;;;;5128312;27;20384;-69
2022/06/23 04:41:51;;;;;;;1999.90;999.90;;;;;;;;;;5133031;27;20401;-69
2022/06/23 04:44:21;;;;;;;1999.90;999.90;;;;;;;;;;5130689;27;20420;-69
2022/06/23 04:46:52;;;;;;;1999.90;999.90;;;;;;;;;;5127058;27;20400;-69
2022/06/23 04:49:23;;;;;;;1999.90;999.90;;;;;;;;;;5128136;27;20473;-69
2022/06/23 04:51:53;;;;;;;1999.90;999.90;;;;;;;;;;5128017;27;20399;-69
2022/06/23 04:54:24;;;;;;;1999.90;999.90;;;;;;;;;;5123132;27;20404;-71
2022/06/23 04:56:56;;;;;;;1999.90;999.90;;;;;;;;;;5127444;27;20396;-72
2022/06/23 04:59:27;;;;;;;1999.90;999.90;;;;;;;;;;5130492;27;20394;-72
2022/06/23 05:01:57;;;;;;;1999.90;999.90;;;;;;;;;;5121713;27;20405;-71
2022/06/23 05:04:28;;;;;;;1999.90;999.90;;;;;;;;;;5122256;27;20451;-72
2022/06/23 05:06:57;;;;;;;1999.90;999.90;;;;;;;;;;5129604;27;20492;-72
2022/06/23 05:09:27;;;;;;;1999.90;999.90;;;;;;;;;;5132719;27;20798;-72
2022/06/23 05:11:57;;;;;;;1999.90;999.90;;;;;;;;;;5127243;27;20387;-73
2022/06/23 05:14:28;;;;;;;1999.90;999.90;;;;;;;;;;5121218;27;20397;-72
2022/06/23 05:17:02;;;;;;;1999.90;999.90;;;;;;;;;;5117979;27;20423;-70
2022/06/23 05:19:32;;;;;;;1999.90;999.90;;;;;;;;;;5119336;27;20408;-70
2022/06/23 05:22:02;;;;;;;1999.90;999.90;;;;;;;;;;5125312;27;20386;-69
2022/06/23 05:24:31;;;;;;;1999.90;999.90;;;;;;;;;;5119351;27;20492;-70
2022/06/23 05:27:00;;;;;;;1999.90;999.90;;;;;;;;;;5120278;27;20410;-70
2022/06/23 05:29:30;;;;;;;1999.90;999.90;;;;;;;;;;5121720;27;20393;-69
2022/06/23 05:32:00;;;;;;;1999.90;999.90;;;;;;;;;;5129893;27;20381;-69
2022/06/23 05:34:30;;;;;;;1999.90;999.90;;;;;;;;;;5129170;27;20377;-69
2022/06/23 05:37:02;;;;;;;1999.90;999.90;;;;;;;;;;5121738;27;20397;-69
2022/06/23 05:39:32;;;;;;;1999.90;999.90;;;;;;;;;;5129404;27;20421;-70
2022/06/23 05:42:02;;;;;;;1999.90;999.90;;;;;;;;;;5126327;27;20402;-70
2022/06/23 05:44:31;;;;;;;1999.90;999.90;;;;;;;;;;5128482;27;20768;-70
2022/06/23 05:47:01;;;;;;;1999.90;999.90;;;;;;;;;;5126093;27;20409;-70
2022/06/23 05:49:31;;;;;;;1999.90;999.90;;;;;;;;;;5120517;27;20400;-70
2022/06/23 05:52:03;;;;;;;1999.90;999.90;;;;;;;;;;5125733;27;20893;-70
2022/06/23 05:54:33;;;;;;;1999.90;999.90;;;;;;;;;;5135369;27;20390;-69
2022/06/23 05:57:07;;;;;;;1999.90;999.90;;;;;;;;;;5124180;27;20405;-70
2022/06/23 05:59:53;;;;;;;1999.90;999.90;;;;;;;;;;5124203;27;20455;-70
2022/06/23 06:02:25;;;;;;;1999.90;999.90;;;;;;;;;;5126491;27;20795;-67
2022/06/23 06:04:55;;;;;;;1999.90;999.90;;;;;;;;;;5121838;27;20493;-67
2022/06/23 06:07:26;;;;;;;1999.90;999.90;;;;;;;;;;5126033;27;20394;-67
2022/06/23 06:09:54;;;;;;;1999.90;999.90;;;;;;;;;;5134908;27;20380;-68
2022/06/23 06:12:23;;;;;;;1999.90;999.90;;;;;;;;;;5122663;27;20822;-67
2022/06/23 06:14:54;;;;;;;1999.90;999.90;;;;;;;;;;5123026;27;20400;-67
2022/06/23 06:17:25;;;;;;;1999.90;999.90;;;;;;;;;;5126262;27;20406;-67
2022/06/23 06:19:54;;;;;;;1999.90;999.90;;;;;;;;;;5122001;27;20409;-67
2022/06/23 06:22:26;;;;;;;1999.90;999.90;;;;;;;;;;5124591;27;21351;-67
2022/06/23 06:24:54;;;;;;;1999.90;999.90;;;;;;;;;;5126103;27;20408;-67
2022/06/23 06:27:22;;;;;;;1999.90;999.90;;;;;;;;;;5123325;27;20405;-67
2022/06/23 06:29:50;;;;;;;1999.90;999.90;;;;;;;;;;5122603;27;20402;-67
2022/06/23 06:32:29;;;;;;;1999.90;999.90;;;;;;;;;;5125192;27;20409;-67
2022/06/23 06:34:59;;;;;;;1999.90;999.90;;;;;;;;;;5118635;27;20686;-68
2022/06/23 06:37:35;;;;;;;1999.90;999.90;;;;;;;;;;5126659;27;20492;-67
2022/06/23 06:40:04;;;;;;;1999.90;999.90;;;;;;;;;;5129065;27;20392;-68
2022/06/23 06:42:33;;;;;;;1999.90;999.90;;;;;;;;;;5122377;27;21359;-67
2022/06/23 06:45:06;;;;;;;1999.90;999.90;;;;;;;;;;5124020;27;20791;-68
2022/06/23 06:47:36;;;;;;;1999.90;999.90;;;;;;;;;;5123650;27;20417;-68
2022/06/23 06:50:24;;;;;;;1999.90;999.90;;;;;;;;;;5130291;27;20394;-67
2022/06/23 06:52:52;;;;;;;1999.90;999.90;;;;;;;;;;5124091;27;20385;-68
2022/06/23 06:55:23;;;;;;;1999.90;999.90;;;;;;;;;;5132806;27;20990;-67
2022/06/23 06:57:55;;;;;;;1999.90;999.90;;;;;;;;;;5130525;27;20453;-67
2022/06/23 07:00:25;;;;;;;1999.90;999.90;;;;;;;;;;5124794;27;20403;-67
2022/06/23 07:02:56;;;;;;;1999.90;999.90;;;;;;;;;;5129275;27;20405;-67
2022/06/23 07:05:27;;;;;;;1999.90;999.90;;;;;;;;;;5133009;27;20526;-68
2022/06/23 07:07:57;;;;;;;1999.90;999.90;;;;;;;;;;5132692;27;20402;-68
2022/06/23 07:10:29;;;;;;;1999.90;999.90;;;;;;;;;;5130439;27;20393;-68
2022/06/23 07:12:58;;;;;;;1999.90;999.90;;;;;;;;;;5128259;27;20383;-67
2022/06/23 07:15:28;;;;;;;1999.90;999.90;;;;;;;;;;5129055;27;20354;-67
2022/06/23 07:18:02;;;;;;;1999.90;999.90;;;;;;;;;;5113466;27;20433;-66
2022/06/23 07:20:33;;;;;;;1999.90;999.90;;;;;;;;;;5135231;27;20396;-67
2022/06/23 07:23:03;;;;;;;1999.90;999.90;;;;;;;;;;5133007;27;20447;-66
2022/06/23 07:25:33;;;;;;;1999.90;999.90;;;;;;;;;;5129216;27;20393;-66
2022/06/23 07:28:03;;;;;;;1999.90;999.90;;;;;;;;;;5131646;27;20538;-66
2022/06/23 07:30:34;;;;;;;1999.90;999.90;;;;;;;;;;5133242;27;20409;-66
2022/06/23 07:33:04;;;;;;;1999.90;999.90;;;;;;;;;;5134027;27;20858;-66
2022/06/23 07:35:34;;;;;;;1999.90;999.90;;;;;;;;;;5126439;27;20462;-66
2022/06/23 07:38:05;;;;;;;1999.90;999.90;;;;;;;;;;5124993;27;20498;-66
2022/06/23 07:40:38;;;;;;;1999.90;999.90;;;;;;;;;;5112627;27;20373;-66
2022/06/23 07:43:10;;;;;;;1999.90;999.90;;;;;;;;;;5110781;27;20384;-66
2022/06/23 07:45:42;;;;;;;1999.90;999.90;;;;;;;;;;5129573;27;20395;-66
2022/06/23 07:48:11;;;;;;;1999.90;999.90;;;;;;;;;;5133371;27;21370;-66
2022/06/23 07:50:39;;;;;;;1999.90;999.90;;;;;;;;;;5131992;27;20393;-67
2022/06/23 07:53:10;;;;;;;1999.90;999.90;;;;;;;;;;5128871;27;20476;-66
2022/06/23 07:55:40;;;;;;;1999.90;999.90;;;;;;;;;;5136923;27;20451;-66
2022/06/23 07:58:16;;;;;;;1999.90;999.90;;;;;;;;;;5125402;27;20404;-67
2022/06/23 08:00:45;;;;;;;1999.90;999.90;;;;;;;;;;5128385;27;21326;-67
2022/06/23 08:03:15;;;;;;;1999.90;999.90;;;;;;;;;;5128752;27;20494;-67
2022/06/23 08:05:44;;;;;;;1999.90;999.90;;;;;;;;;;5131251;27;20432;-69
2022/06/23 08:08:15;;;;;;;1999.90;999.90;;;;;;;;;;5134673;27;20392;-66
2022/06/23 08:10:42;;;;;;;1999.90;999.90;;;;;;;;;;5127426;27;21250;-67
2022/06/23 08:13:12;;;;;;;1999.90;999.90;;;;;;;;;;5127296;27;20408;-67
2022/06/23 08:18:31;;;;;;;1999.90;999.90;;;;;;;;;;5133168;27;20405;-68
2022/06/23 08:21:02;;;;;;;1999.90;999.90;;;;;;;;;;5128882;27;20941;-66
2022/06/23 08:23:31;;;;;;;1999.90;999.90;;;;;;;;;;5132643;27;20401;-67
2022/06/23 08:26:00;;;;;;;1999.90;999.90;;;;;;;;;;5128655;27;20388;-67
2022/06/23 08:28:28;;;;;;;1999.90;999.90;;;;;;;;;;5128988;27;20911;-67
2022/06/23 08:30:56;;;;;;;1999.90;999.90;;;;;;;;;;5125779;27;20523;-72
2022/06/23 08:33:25;;;;;;;1999.90;999.90;;;;;;;;;;5130311;27;20384;-72
2022/06/23 08:35:56;;;;;;;1999.90;999.90;;;;;;;;;;5125391;27;21579;-72
2022/06/23 08:38:32;;;;;;;1999.90;999.90;;;;;;;;;;5132801;27;20408;-72
2022/06/23 08:41:06;;;;;;;1999.90;999.90;;;;;;;;;;5132733;27;20416;-72
2022/06/23 08:43:35;;;;;;;1999.90;999.90;;;;;;;;;;5128369;27;20414;-74
2022/06/23 08:46:06;;;;;;;1999.90;999.90;;;;;;;;;;5129068;27;20398;-73
2022/06/23 08:48:43;;;;;;;1999.90;999.90;;;;;;;;;;5127389;27;20764;-74
2022/06/23 08:51:18;;;;;;;1999.90;999.90;;;;;;;;;;5126329;27;21529;-74
2022/06/23 08:53:49;;;;;;;1999.90;999.90;;;;;;;;;;5128048;27;20503;-74
2022/06/23 08:56:20;;;;;;;1999.90;999.90;;;;;;;;;;5128297;27;20393;-75
2022/06/23 08:58:50;;;;;;;1999.90;999.90;;;;;;;;;;5126860;27;20410;-74
2022/06/23 09:01:20;;;;;;;1999.90;999.90;;;;;;;;;;5130378;27;20390;-74
2022/06/23 09:03:51;;;;;;;1999.90;999.90;;;;;;;;;;5122403;27;20447;-73
2022/06/23 09:06:32;;;;;;;1999.90;999.90;;;;;;;;;;5129975;27;20808;-74
2022/06/23 09:09:08;;;;;;;1999.90;999.90;;;;;;;;;;5128012;27;20644;-74
2022/06/23 09:11:40;;;;;;;1999.90;999.90;;;;;;;;;;5123554;27;20395;-74
2022/06/23 09:14:27;;;;;;;1999.90;999.90;;;;;;;;;;5127540;27;20487;-74
2022/06/23 09:17:16;;;;;;;1999.90;999.90;;;;;;;;;;5125423;27;20428;-74
2022/06/23 09:19:51;;;;;;;1999.90;999.90;;;;;;;;;;5128752;27;20412;-74
2022/06/23 09:22:30;;;;;;;1999.90;999.90;;;;;;;;;;5127219;27;20380;-74
2022/06/23 09:24:59;;;;;;;1999.90;999.90;;;;;;;;;;5132365;27;20469;-75
2022/06/23 09:27:38;;;;;;;1999.90;999.90;;;;;;;;;;5134748;27;20386;-73
2022/06/23 09:30:09;;;;;;;1999.90;999.90;;;;;;;;;;5128098;27;21148;-74
2022/06/23 09:32:55;;;;;;;1999.90;999.90;;;;;;;;;;5122064;27;20392;-74
2022/06/23 09:35:47;;;;;;;1999.90;999.90;;;;;;;;;;5129968;27;20895;-73
2022/06/23 09:38:42;;;;;;;1999.90;999.90;;;;;;;;;;5094611;27;21548;-75
2022/06/23 09:41:19;;;;;;;1999.90;999.90;;;;;;;;;;5088128;27;21312;-74
2022/06/23 09:44:08;;;;;;;1999.90;999.90;;;;;;;;;;5125413;27;20400;-74
2022/06/23 09:46:44;;;;;;;1999.90;999.90;;;;;;;;;;5099193;27;20475;-74
2022/06/23 09:49:24;;;;;;;1999.90;999.90;;;;;;;;;;5130673;27;20400;-73
2022/06/23 09:52:02;;;;;;;1999.90;999.90;;;;;;;;;;5127428;27;20510;-75
2022/06/23 09:54:51;;;;;;;1999.90;999.90;;;;;;;;;;5126749;27;20408;-72
2022/06/23 09:57:29;;;;;;;1999.90;999.90;;;;;;;;;;5110889;27;20465;-72
2022/06/23 10:00:05;;;;;;;1999.90;999.90;;;;;;;;;;5124357;27;20398;-72
2022/06/23 10:02:43;;;;;;;1999.90;999.90;;;;;;;;;;5121940;27;21239;-72
2022/06/23 10:05:19;;;;;;;1999.90;999.90;;;;;;;;;;5125941;27;21215;-72
2022/06/23 10:07:55;;;;;;;1999.90;999.90;;;;;;;;;;5126066;27;20523;-71
2022/06/23 10:10:29;;;;;;;1999.90;999.90;;;;;;;;;;5127480;27;20384;-74
2022/06/23 10:13:10;;;;;;;1999.90;999.90;;;;;;;;;;5122344;27;20930;-72
2022/06/23 10:15:55;;;;;;;1999.90;999.90;;;;;;;;;;5126710;27;20507;-73
2022/06/23 10:18:37;;;;;;;1999.90;999.90;;;;;;;;;;5123531;27;20396;-71
2022/06/23 10:21:16;;;;;;;1999.90;999.90;;;;;;;;;;5126336;27;20403;-71
2022/06/23 10:24:02;;;;;;;1999.90;999.90;;;;;;;;;;5132483;27;20408;-71
2022/06/23 10:26:35;;;;;;;1999.90;999.90;;;;;;;;;;5124888;27;20385;-71
2022/06/23 10:29:15;;;;;;;1999.90;999.90;;;;;;;;;;5127793;27;21186;-71
2022/06/23 10:32:02;;;;;;;1999.90;999.90;;;;;;;;;;5125426;27;20890;-71
2022/06/23 10:34:41;;;;;;;1999.90;999.90;;;;;;;;;;5111806;27;20400;-71
2022/06/23 10:37:24;;;;;;;1999.90;999.90;;;;;;;;;;5132625;27;20872;-71
2022/06/23 10:39:58;;;;;;;1999.90;999.90;;;;;;;;;;5132322;27;20421;-72
2022/06/23 10:42:37;;;;;;;1999.90;999.90;;;;;;;;;;5132923;27;20394;-72
2022/06/23 10:45:22;;;;;;;1999.90;999.90;;;;;;;;;;5134273;27;20408;-72
2022/06/23 10:47:59;;;;;;;1999.90;999.90;;;;;;;;;;5128384;27;20397;-72
2022/06/23 10:50:40;;;;;;;1999.90;999.90;;;;;;;;;;5129566;27;20767;-73
2022/06/23 10:53:33;;;;;;;1999.90;999.90;;;;;;;;;;5129512;27;20410;-72
2022/06/23 10:56:16;;;;;;;1999.90;999.90;;;;;;;;;;5131039;27;20435;-72
2022/06/23 10:59:01;;;;;;;1999.90;999.90;;;;;;;;;;5130880;27;20393;-71
2022/06/23 11:01:44;;;;;;;1999.90;999.90;;;;;;;;;;5128087;27;20377;-72
2022/06/23 11:04:23;;;;;;;1999.90;999.90;;;;;;;;;;5128902;27;20404;-72
2022/06/23 11:07:03;;;;;;;1999.90;999.90;;;;;;;;;;5128785;27;20394;-72
2022/06/23 11:09:49;;;;;;;1999.90;999.90;;;;;;;;;;5151525;27;20773;-71
2022/06/23 11:12:30;;;;;;;1999.90;999.90;;;;;;;;;;5129392;27;21291;-71
2022/06/23 11:15:03;;;;;;;1999.90;999.90;;;;;;;;;;5124485;27;20513;-72
2022/06/23 11:17:35;;;;;;;1999.90;999.90;;;;;;;;;;5125292;27;20481;-70
2022/06/23 11:20:09;;;;;;;1999.90;999.90;;;;;;;;;;5130373;27;20392;-72
2022/06/23 11:22:39;;;;;;;1999.90;999.90;;;;;;;;;;5125386;27;20384;-72
2022/06/23 11:25:16;;;;;;;1999.90;999.90;;;;;;;;;;5137707;27;21141;-71
2022/06/23 11:27:49;;;;;;;1999.90;999.90;;;;;;;;;;5129009;27;21236;-72
2022/06/23 11:30:22;;;;;;;1999.90;999.90;;;;;;;;;;5126608;27;20402;-73
2022/06/23 11:32:59;;;;;;;1999.90;999.90;;;;;;;;;;5111559;27;20851;-72
2022/06/23 11:35:40;;;;;;;1999.90;999.90;;;;;;;;;;5128999;27;20911;-72
2022/06/23 11:38:26;;;;;;;1999.90;999.90;;;;;;;;;;5144043;27;20389;-73
2022/06/23 11:40:59;;;;;;;1999.90;999.90;;;;;;;;;;5126347;27;20458;-72
2022/06/23 11:43:35;;;;;;;1999.90;999.90;;;;;;;;;;5131906;27;21810;-71
2022/06/23 11:46:09;;;;;;;1999.90;999.90;;;;;;;;;;5127084;27;20378;-72
2022/06/23 11:48:43;;;;;;;1999.90;999.90;;;;;;;;;;5131453;27;20881;-72
2022/06/23 11:51:19;;;;;;;1999.90;999.90;;;;;;;;;;5129963;27;20390;-71
2022/06/23 11:53:55;;;;;;;1999.90;999.90;;;;;;;;;;5127623;27;20385;-72
2022/06/23 11:56:29;;;;;;;1999.90;999.90;;;;;;;;;;5124245;27;20484;-73
2022/06/23 11:59:03;;;;;;;1999.90;999.90;;;;;;;;;;5122323;27;21882;-72
2022/06/23 12:01:31;;;;;;;1999.90;999.90;;;;;;;;;;5128022;27;20398;-74
2022/06/23 12:04:14;;;;;;;1999.90;999.90;;;;;;;;;;5129804;27;20430;-74
2022/06/23 12:06:46;;;;;;;1999.90;999.90;;;;;;;;;;5125002;27;20446;-74
2022/06/23 12:09:21;;;;;;;1999.90;999.90;;;;;;;;;;5129673;27;20393;-74
2022/06/23 12:11:54;;;;;;;1999.90;999.90;;;;;;;;;;5128311;27;20401;-73
2022/06/23 12:14:23;;;;;;;1999.90;999.90;;;;;;;;;;5132118;27;20421;-74
2022/06/23 12:16:55;;;;;;;1999.90;999.90;;;;;;;;;;5128050;27;20397;-73
2022/06/23 12:19:26;;;;;;;1999.90;999.90;;;;;;;;;;5125395;27;20411;-74
2022/06/23 12:21:59;;;;;;;1999.90;999.90;;;;;;;;;;5132427;27;20388;-74
2022/06/23 12:24:30;;;;;;;1999.90;999.90;;;;;;;;;;5124913;27;20416;-75
2022/06/23 12:27:02;;;;;;;1999.90;999.90;;;;;;;;;;5122072;27;20780;-74
2022/06/23 12:29:35;;;;;;;1999.90;999.90;;;;;;;;;;5122624;27;21202;-74
2022/06/23 12:32:07;;;;;;;1999.90;999.90;;;;;;;;;;5135398;27;20484;-74
2022/06/23 12:34:37;;;;;;;1999.90;999.90;;;;;;;;;;5118658;27;20408;-74
2022/06/23 12:37:14;;;;;;;1999.90;999.90;;;;;;;;;;5125144;27;20380;-74
2022/06/23 12:39:45;;;;;;;1999.90;999.90;;;;;;;;;;5140146;27;20413;-75
2022/06/23 12:42:16;;;;;;;1999.90;999.90;;;;;;;;;;5118400;27;20823;-74
2022/06/23 12:44:51;;;;;;;1999.90;999.90;;;;;;;;;;5126860;27;20400;-75
2022/06/23 12:47:25;;;;;;;1999.90;999.90;;;;;;;;;;5124389;27;20385;-73
2022/06/23 12:50:08;;;;;;;1999.90;999.90;;;;;;;;;;5125973;27;21109;-73
2022/06/23 12:52:45;;;;;;;1999.90;999.90;;;;;;;;;;5117444;27;20398;-75
2022/06/23 12:55:30;;;;;;;1999.90;999.90;;;;;;;;;;5127300;27;20404;-75
2022/06/23 12:58:02;;;;;;;1999.90;999.90;;;;;;;;;;5128994;27;20808;-75
2022/06/23 13:00:45;;;;;;;1999.90;999.90;;;;;;;;;;5127606;27;20409;-75
2022/06/23 13:03:16;;;;;;;1999.90;999.90;;;;;;;;;;5125803;27;20451;-75
2022/06/23 13:05:48;;;;;;;1999.90;999.90;;;;;;;;;;5127916;27;20409;-75
2022/06/23 13:08:22;;;;;;;1999.90;999.90;;;;;;;;;;5135585;27;20495;-75
2022/06/23 13:10:52;;;;;;;1999.90;999.90;;;;;;;;;;5106556;27;20756;-74
2022/06/23 13:13:22;;;;;;;1999.90;999.90;;;;;;;;;;5123907;27;20386;-74
2022/06/23 13:15:54;;;;;;;1999.90;999.90;;;;;;;;;;5121372;27;20416;-75
2022/06/23 13:18:25;;;;;;;1999.90;999.90;;;;;;;;;;5126337;27;20400;-74
2022/06/23 13:20:55;;;;;;;1999.90;999.90;;;;;;;;;;5127134;27;20411;-75
2022/06/23 13:23:25;;;;;;;1999.90;999.90;;;;;;;;;;5126375;27;20603;-74
2022/06/23 13:25:55;;;;;;;1999.90;999.90;;;;;;;;;;5124594;27;20387;-75
2022/06/23 13:28:36;;;;;;;1999.90;999.90;;;;;;;;;;5127293;27;20401;-74
2022/06/23 13:31:08;;;;;;;1999.90;999.90;;;;;;;;;;5124715;27;20375;-74
2022/06/23 13:33:39;;;;;;;1999.90;999.90;;;;;;;;;;5126186;27;20792;-74
2022/06/23 13:36:14;;;;;;;1999.90;999.90;;;;;;;;;;5131375;27;20478;-74
2022/06/23 13:38:49;;;;;;;1999.90;999.90;;;;;;;;;;5136499;27;20398;-73
2022/06/23 13:41:18;;;;;;;1999.90;999.90;;;;;;;;;;5122166;27;20414;-73
2022/06/23 13:43:50;;;;;;;1999.90;999.90;;;;;;;;;;5120824;27;20407;-73
2022/06/23 13:46:22;;;;;;;1999.90;999.90;;;;;;;;;;5127393;27;20768;-75
2022/06/23 13:48:56;;;;;;;1999.90;999.90;;;;;;;;;;5122787;27;20390;-73
2022/06/23 13:51:26;;;;;;;1999.90;999.90;;;;;;;;;;5126761;27;20404;-75
2022/06/23 13:54:00;;;;;;;1999.90;999.90;;;;;;;;;;5130754;27;20496;-73
2022/06/23 13:56:34;;;;;;;1999.90;999.90;;;;;;;;;;5124764;27;21017;-72
2022/06/23 13:59:04;;;;;;;1999.90;999.90;;;;;;;;;;5125542;27;20393;-74
2022/06/23 14:01:35;;;;;;;1999.90;999.90;;;;;;;;;;5134118;27;20416;-73
2022/06/23 14:04:05;;;;;;;1999.90;999.90;;;;;;;;;;5122810;27;20389;-74
2022/06/23 14:06:36;;;;;;;1999.90;999.90;;;;;;;;;;5132621;27;20411;-74
2022/06/23 14:09:13;;;;;;;1999.90;999.90;;;;;;;;;;5127216;27;20398;-74
2022/06/23 14:11:43;;;;;;;1999.90;999.90;;;;;;;;;;5126293;27;20407;-73
2022/06/23 14:14:16;;;;;;;1999.90;999.90;;;;;;;;;;5122810;27;21151;-74
2022/06/23 14:16:46;;;;;;;1999.90;999.90;;;;;;;;;;5121963;27;21323;-74
2022/06/23 14:19:16;;;;;;;1999.90;999.90;;;;;;;;;;5122889;27;20912;-73
2022/06/23 14:21:47;;;;;;;1999.90;999.90;;;;;;;;;;5128782;27;20421;-75
2022/06/23 14:24:19;;;;;;;1999.90;999.90;;;;;;;;;;5125563;27;20431;-74